Time;durP1;ratioP1;P1;durP2;ratioP2;P2;SDS_P1;SDS_P2;PMS_P1;PMS_P2;Temp;Humidity;BMP_temperature;BMP_pressure;BME280_temperature;BME280_humidity;BME280_pressure;Samples;Min_cycle;Max_cycle;Signal;HPM_P1;HPM_P2
2022/06/25 00:01:38;;;;;;;10.93;9.93;;;21.80;1.00;;;22.02;66.87;100331.66;5012540;28;20444;-75
2022/06/25 00:05:27;;;;;;;8.77;8.00;;;21.80;1.00;;;22.04;66.61;100334.91;5010844;28;20503;-76
2022/06/25 00:06:57;;;;;;;9.67;8.60;;;21.80;1.00;;;22.12;66.22;100336.25;5011672;28;20427;-74
2022/06/25 00:09:26;;;;;;;9.30;8.50;;;21.80;1.00;;;22.17;65.88;100343.63;5007266;28;20504;-76
2022/06/25 00:14:47;;;;;;;9.80;8.90;;;21.90;1.00;;;22.35;65.01;100340.09;5000716;28;20852;-75
2022/06/25 00:17:18;;;;;;;10.47;9.10;;;22.00;1.00;;;22.44;64.59;100339.16;4993488;28;20447;-74
2022/06/25 00:19:48;;;;;;;10.80;9.73;;;22.10;1.00;;;22.37;64.92;100340.63;5012410;28;20846;-75
2022/06/25 00:22:17;;;;;;;10.70;9.70;;;22.10;1.00;;;22.37;65.10;100337.84;5014104;28;20439;-74
2022/06/25 00:24:46;;;;;;;11.00;9.83;;;22.10;1.00;;;22.42;64.86;100341.38;5012660;28;20441;-75
2022/06/25 00:27:16;;;;;;;11.40;10.30;;;22.10;1.00;;;22.47;64.63;100337.75;4988241;28;20488;-75
2022/06/25 00:29:45;;;;;;;9.33;8.17;;;22.10;1.00;;;22.47;64.82;100332.22;5014730;28;20846;-75
2022/06/25 00:32:14;;;;;;;12.03;9.90;;;22.10;1.00;;;22.41;65.64;100323.19;5012186;28;20439;-74
2022/06/25 00:34:44;;;;;;;10.07;9.20;;;22.10;1.00;;;22.31;65.88;100323.34;4992219;28;20420;-74
2022/06/25 00:37:13;;;;;;;10.90;10.00;;;22.10;1.00;;;22.22;66.33;100325.06;5006725;28;20474;-75
2022/06/25 00:39:43;;;;;;;13.20;10.10;;;22.00;1.00;;;22.21;66.61;100322.63;5004632;28;20474;-75
2022/06/25 00:42:15;;;;;;;11.50;10.50;;;22.00;1.00;;;22.19;67.17;100325.66;5015444;28;20887;-75
2022/06/25 00:44:44;;;;;;;12.83;11.60;;;21.90;1.00;;;22.16;67.43;100330.97;5014147;28;20800;-75
2022/06/25 00:47:15;;;;;;;12.77;11.50;;;21.90;1.00;;;22.18;67.60;100325.94;5008207;28;20500;-76
2022/06/25 00:49:44;;;;;;;14.37;12.97;;;21.90;1.00;;;22.12;67.94;100330.72;5017229;28;20786;-75
2022/06/25 00:52:16;;;;;;;13.50;12.13;;;21.80;1.00;;;22.01;68.45;100330.00;5014557;28;20779;-75
2022/06/25 00:54:50;;;;;;;15.47;14.03;;;21.80;1.00;;;21.94;68.82;100329.50;5011386;28;20457;-75
2022/06/25 00:57:25;;;;;;;17.40;15.60;;;21.70;1.00;;;21.88;69.41;100335.34;5009988;28;20457;-75
2022/06/25 00:59:59;;;;;;;20.20;17.90;;;21.60;1.00;;;21.77;70.46;100331.88;5010690;28;20456;-75
2022/06/25 01:02:28;;;;;;;21.23;19.03;;;21.50;1.00;;;21.64;70.74;100327.84;5011153;28;20462;-75
2022/06/25 01:04:58;;;;;;;24.40;21.93;;;21.50;1.00;;;21.49;71.15;100321.66;5010497;28;20428;-75
2022/06/25 01:07:27;;;;;;;27.33;24.53;;;21.40;1.00;;;21.51;71.68;100320.25;5012556;28;20935;-76
2022/06/25 01:09:57;;;;;;;25.40;22.93;;;21.30;1.00;;;21.51;71.48;100325.75;5011047;28;20424;-76
2022/06/25 01:12:28;;;;;;;26.90;24.00;;;21.30;1.00;;;21.32;72.43;100322.06;5011261;28;20447;-74
2022/06/25 01:15:09;;;;;;;27.80;25.10;;;21.20;1.00;;;21.25;72.74;100322.38;5010231;28;20464;-76
2022/06/25 01:17:43;;;;;;;28.13;25.27;;;21.10;1.00;;;21.24;73.01;100318.00;5011332;28;20482;-75
2022/06/25 01:20:15;;;;;;;30.63;27.60;;;21.00;1.00;;;21.27;73.16;100313.00;5009839;28;20419;-75
2022/06/25 01:22:45;;;;;;;38.10;30.30;;;21.10;1.00;;;21.11;73.66;100315.84;5006631;28;20451;-74
2022/06/25 01:25:16;;;;;;;32.57;29.33;;;21.00;1.00;;;21.04;74.54;100314.53;5007388;28;20456;-75
2022/06/25 01:27:47;;;;;;;32.77;29.47;;;20.90;1.00;;;21.04;74.46;100315.34;5018879;28;20454;-75
2022/06/25 01:30:17;;;;;;;34.07;30.50;;;20.90;1.00;;;21.16;74.48;100315.84;5008754;28;20427;-75
2022/06/25 01:32:46;;;;;;;32.10;28.90;;;21.00;1.00;;;21.11;74.72;100309.50;5025464;28;20808;-76
2022/06/25 01:35:18;;;;;;;32.67;29.40;;;20.90;1.00;;;21.12;74.92;100309.22;5003439;28;21012;-76
2022/06/25 01:37:48;;;;;;;31.27;28.10;;;20.90;1.00;;;21.05;75.05;100321.69;5007324;28;21022;-76
2022/06/25 01:40:18;;;;;;;31.00;28.07;;;20.90;5.80;;;21.05;74.99;100316.19;5010640;28;20518;-76
2022/06/25 01:42:59;;;;;;;29.70;26.10;;;20.90;8.00;;;20.93;75.50;100313.75;5009301;28;20494;-75
2022/06/25 01:45:32;;;;;;;27.67;24.97;;;20.80;11.70;;;20.89;76.14;100317.38;5006273;28;20943;-75
2022/06/25 01:48:02;;;;;;;26.63;23.70;;;20.70;17.50;;;20.85;76.11;100317.13;5010027;28;20445;-75
2022/06/25 01:50:32;;;;;;;24.73;22.20;;;20.70;19.60;;;20.82;75.88;100313.00;5004105;28;20982;-75
2022/06/25 01:53:03;;;;;;;25.03;22.50;;;20.70;20.90;;;20.82;76.02;100307.50;4996746;28;20600;-76
2022/06/25 01:55:33;;;;;;;25.20;22.70;;;20.70;24.80;;;20.79;76.24;100307.25;4999677;28;20839;-75
2022/06/25 01:58:04;;;;;;;22.17;19.83;;;20.60;27.10;;;20.69;76.91;100308.13;5000995;28;20847;-75
2022/06/25 02:00:34;;;;;;;25.60;20.20;;;20.60;33.00;;;20.65;76.89;100314.47;4985213;28;20420;-75
2022/06/25 02:03:08;;;;;;;24.93;20.60;;;20.50;39.70;;;20.67;77.33;100315.03;5007044;28;20501;-75
2022/06/25 02:08:29;;;;;;;23.93;21.40;;;20.50;43.00;;;20.58;77.44;100319.44;5009011;28;20407;-76
2022/06/25 02:11:00;;;;;;;21.10;19.00;;;20.50;50.80;;;20.64;77.46;100315.56;5004544;28;20902;-75
2022/06/25 02:13:31;;;;;;;20.60;18.67;;;20.50;54.50;;;20.75;77.19;100315.25;5009615;28;20411;-75
2022/06/25 02:16:01;;;;;;;22.13;19.60;;;20.50;55.10;;;20.61;77.61;100316.16;5008247;28;20411;-75
2022/06/25 02:18:30;;;;;;;22.60;19.80;;;20.50;58.20;;;20.60;77.70;100318.06;4991482;28;20451;-74
2022/06/25 02:21:00;;;;;;;21.23;19.00;;;20.50;59.60;;;20.54;77.88;100321.13;5000283;28;20497;-76
2022/06/25 02:23:30;;;;;;;22.17;20.03;;;20.40;66.50;;;20.47;78.23;100320.63;4991049;28;20455;-75
2022/06/25 02:25:59;;;;;;;20.33;18.50;;;20.40;69.00;;;20.61;78.17;100321.66;5007732;28;20440;-76
2022/06/25 02:28:28;;;;;;;22.47;19.33;;;20.40;80.70;;;20.54;78.18;100323.88;5004614;28;20463;-76
2022/06/25 02:30:58;;;;;;;23.27;20.90;;;20.40;86.30;;;20.42;78.58;100317.88;5006844;28;20433;-77
2022/06/25 02:33:28;;;;;;;24.00;21.50;;;20.40;86.80;;;20.41;78.82;100321.72;5009172;28;20431;-75
2022/06/25 02:35:57;;;;;;;22.27;20.00;;;20.30;94.70;;;20.26;79.56;100320.66;5009063;28;20474;-74
2022/06/25 02:38:26;;;;;;;21.57;19.27;;;20.20;96.20;;;20.18;79.99;100329.47;5006576;28;20441;-75
2022/06/25 02:40:59;;;;;;;22.20;19.33;;;20.10;99.90;;;20.15;80.50;100327.28;5005475;28;20444;-74
2022/06/25 02:43:35;;;;;;;22.40;20.13;;;20.10;99.90;;;20.19;80.29;100324.78;4991971;28;20985;-75
2022/06/25 02:46:16;;;;;;;20.43;18.00;;;20.10;99.90;;;20.15;80.76;100330.03;4992531;28;20975;-73
2022/06/25 02:48:48;;;;;;;22.60;20.57;;;20.00;99.90;;;20.15;80.80;100329.19;4994085;28;20930;-74
2022/06/25 02:51:18;;;;;;;21.63;19.53;;;20.00;99.90;;;20.09;80.78;100331.13;4994649;28;20951;-74
2022/06/25 02:53:47;;;;;;;22.17;20.07;;;20.00;99.90;;;20.08;81.50;100336.91;4993739;28;20502;-74
2022/06/25 02:59:08;;;;;;;20.83;18.83;;;19.90;99.90;;;20.05;81.74;100352.00;5005021;28;20474;-74
2022/06/25 03:01:54;;;;;;;21.47;19.30;;;19.90;99.90;;;20.23;81.29;100354.19;4981567;28;20473;-74
2022/06/25 03:04:29;;;;;;;22.83;19.80;;;20.00;99.90;;;20.26;81.19;100364.63;5010962;28;20530;-74
2022/06/25 03:06:59;;;;;;;21.10;18.90;;;20.10;99.90;;;20.27;81.17;100373.69;5005540;28;20499;-74
2022/06/25 03:09:28;;;;;;;20.50;17.73;;;20.10;99.90;;;20.24;81.14;100377.78;5004675;28;20470;-74
2022/06/25 03:12:00;;;;;;;27.57;22.83;;;20.10;99.90;;;20.20;81.38;100382.19;5000186;28;20466;-76
2022/06/25 03:14:30;;;;;;;22.10;19.67;;;20.10;99.90;;;20.23;81.67;100389.09;5006424;28;20478;-75
2022/06/25 03:16:59;;;;;;;25.33;22.60;;;20.10;99.90;;;20.27;81.34;100391.00;4994658;28;20457;-75
2022/06/25 03:19:42;;;;;;;21.60;19.50;;;20.10;99.90;;;20.21;81.56;100400.34;4994260;28;20457;-74
2022/06/25 03:22:24;;;;;;;20.87;19.03;;;20.10;99.90;;;20.29;81.58;100405.25;4987491;28;20473;-76
2022/06/25 03:24:53;;;;;;;20.93;18.53;;;20.10;99.90;;;20.32;81.25;100407.50;4993112;28;20423;-75
2022/06/25 03:27:23;;;;;;;21.83;19.63;;;20.10;99.90;;;20.32;81.26;100406.66;4988234;28;20429;-75
2022/06/25 03:30:03;;;;;;;25.77;23.07;;;20.10;99.90;;;20.34;81.27;100405.28;4989756;28;20538;-74
2022/06/25 03:32:35;;;;;;;34.27;30.47;;;20.10;99.90;;;20.44;81.29;100412.69;4991749;28;20478;-75
2022/06/25 03:35:22;;;;;;;26.80;19.90;;;20.20;99.90;;;20.62;80.10;100406.56;5007991;28;20436;-76
2022/06/25 03:38:07;;;;;;;32.70;29.73;;;20.30;99.90;;;20.66;80.14;100412.34;4998597;28;20476;-74
2022/06/25 03:40:36;;;;;;;45.87;41.50;;;20.40;99.90;;;20.69;80.21;100411.78;5002140;28;20457;-74
2022/06/25 03:43:10;;;;;;;67.20;60.50;;;20.40;99.90;;;20.90;79.88;100418.84;5010464;28;20455;-74
2022/06/25 03:45:41;;;;;;;28.90;25.93;;;20.50;99.90;;;21.02;78.59;100416.56;5010875;28;20451;-75
2022/06/25 03:48:11;;;;;;;30.43;27.50;;;20.70;99.90;;;21.04;78.70;100430.88;5007734;28;20450;-75
2022/06/25 03:50:59;;;;;;;22.30;20.27;;;20.70;99.90;;;21.16;78.11;100428.63;5011450;28;20436;-74
2022/06/25 03:53:28;;;;;;;26.33;23.50;;;20.80;99.90;;;21.28;78.16;100435.75;5012123;28;20447;-74
2022/06/25 03:55:58;;;;;;;25.70;23.10;;;20.90;99.90;;;21.46;77.05;100435.06;5010292;28;20477;-74
2022/06/25 03:58:35;;;;;;;21.57;18.97;;;21.00;99.90;;;21.62;76.43;100450.41;5007561;28;20469;-74
2022/06/25 04:01:05;;;;;;;25.03;19.83;;;21.10;99.90;;;21.90;75.39;100444.13;5008484;28;20465;-74
2022/06/25 04:03:34;;;;;;;24.30;21.97;;;21.20;99.90;;;21.99;74.88;100442.41;5009164;28;20460;-74
2022/06/25 04:06:10;;;;;;;18.80;16.90;;;21.40;99.90;;;21.86;75.48;100448.56;5006797;28;20436;-73
2022/06/25 04:08:44;;;;;;;23.07;20.70;;;21.50;99.90;;;22.16;74.51;100442.00;4997259;28;20448;-74
2022/06/25 04:11:16;;;;;;;23.37;20.87;;;21.50;99.60;;;22.69;72.46;100453.88;5026806;28;20937;-74
2022/06/25 04:13:52;;;;;;;19.27;17.27;;;21.80;94.10;;;23.95;68.40;100450.53;5009993;28;20430;-74
2022/06/25 04:16:23;;;;;;;18.60;16.70;;;22.30;75.70;;;25.08;63.87;100451.75;5026892;28;20447;-74
2022/06/25 04:18:54;;;;;;;22.70;20.50;;;22.90;41.10;;;25.92;60.97;100460.38;5009623;28;20499;-75
2022/06/25 04:21:28;;;;;;;18.40;16.73;;;23.30;30.70;;;26.57;58.91;100465.41;5024140;28;20510;-75
2022/06/25 04:23:57;;;;;;;21.50;17.03;;;24.00;20.40;;;27.00;57.13;100458.09;5005001;28;20470;-73
2022/06/25 04:26:29;;;;;;;19.03;17.17;;;24.30;22.60;;;27.14;56.70;100463.53;5007859;28;20449;-73
2022/06/25 04:29:04;;;;;;;19.17;16.40;;;24.80;11.90;;;26.55;57.46;100462.13;5011893;28;20399;-74
2022/06/25 04:31:40;;;;;;;17.63;15.93;;;25.10;7.90;;;26.19;58.49;100465.78;5009564;28;20443;-73
2022/06/25 04:34:15;;;;;;;20.83;17.93;;;24.90;5.60;;;25.40;60.88;100465.47;4996435;28;20895;-74
2022/06/25 04:36:46;;;;;;;19.83;17.50;;;24.50;5.80;;;24.94;62.61;100473.06;5008495;28;20455;-74
2022/06/25 04:39:21;;;;;;;20.83;18.77;;;24.30;5.70;;;24.62;64.09;100473.97;5002402;28;20489;-75
2022/06/25 04:41:51;;;;;;;18.87;17.10;;;23.70;10.10;;;24.48;63.74;100476.72;5005027;28;20453;-74
2022/06/25 04:44:24;;;;;;;22.53;20.30;;;23.50;9.20;;;24.58;62.67;100476.53;5006645;28;20646;-74
2022/06/25 04:46:55;;;;;;;23.40;21.10;;;23.50;6.40;;;24.59;62.17;100480.91;4992816;28;20468;-75
2022/06/25 04:49:45;;;;;;;22.70;20.70;;;23.60;2.30;;;24.39;62.59;100478.53;5010367;28;20434;-74
2022/06/25 04:52:14;;;;;;;23.43;21.07;;;23.40;1.00;;;24.34;62.98;100484.16;4990307;28;20483;-73
2022/06/25 04:54:44;;;;;;;19.93;18.23;;;23.40;1.00;;;24.32;63.24;100482.81;5003109;28;20533;-75
2022/06/25 04:57:20;;;;;;;21.87;19.67;;;23.30;1.30;;;24.38;62.79;100492.66;5003706;28;21028;-74
2022/06/25 05:00:12;;;;;;;22.57;20.43;;;23.50;1.00;;;24.30;62.71;100496.13;5010947;28;20483;-75
2022/06/25 05:02:42;;;;;;;21.03;18.93;;;23.50;1.00;;;24.38;62.23;100504.56;4990994;28;20515;-75
2022/06/25 05:05:15;;;;;;;21.73;18.87;;;23.50;1.00;;;24.66;61.51;100495.19;4992843;28;20440;-74
2022/06/25 05:07:46;;;;;;;20.33;18.43;;;23.60;1.00;;;25.73;58.23;100499.38;4991033;28;20483;-75
2022/06/25 05:10:15;;;;;;;21.73;19.60;;;24.10;1.00;;;26.34;56.45;100495.94;5004324;28;20404;-74
2022/06/25 05:15:33;;;;;;;20.10;18.20;;;24.90;1.00;;;28.02;52.17;100503.88;5008852;28;20540;-75
2022/06/25 05:18:02;;;;;;;21.00;19.10;;;25.20;1.00;;;29.24;49.21;100508.78;5005632;28;20438;-76
2022/06/25 05:20:33;;;;;;;22.83;20.53;;;26.30;1.00;;;29.90;47.12;100508.25;4990617;28;20440;-74
2022/06/25 05:23:02;;;;;;;22.27;20.27;;;27.20;1.00;;;30.97;45.02;100522.09;4992087;28;20505;-74
2022/06/25 05:25:31;;;;;;;18.80;17.00;;;27.40;1.00;;;31.32;44.56;100517.69;5005904;28;20426;-75
2022/06/25 05:28:01;;;;;;;19.77;18.07;;;27.60;1.00;;;30.25;46.19;100526.31;5004477;28;20510;-74
2022/06/25 05:30:33;;;;;;;21.77;19.73;;;27.40;1.00;;;28.71;49.39;100520.47;4992580;28;20813;-74
2022/06/25 05:33:04;;;;;;;19.80;18.00;;;27.00;1.00;;;27.64;52.33;100533.44;5006815;28;20849;-74
2022/06/25 05:35:34;;;;;;;21.13;19.03;;;26.40;1.00;;;26.96;54.29;100532.06;5009740;28;20804;-75
2022/06/25 05:38:08;;;;;;;19.93;18.23;;;26.00;1.00;;;26.55;55.08;100534.25;5010369;28;20978;-75
2022/06/25 05:40:40;;;;;;;21.00;19.03;;;25.60;1.00;;;26.42;56.01;100535.97;5007756;28;20459;-74
2022/06/25 05:43:10;;;;;;;20.30;18.10;;;25.80;1.00;;;26.11;57.08;100533.09;5007230;28;20465;-74
2022/06/25 05:45:40;;;;;;;20.17;18.47;;;25.30;1.00;;;25.86;58.26;100530.94;5003670;28;20487;-74
2022/06/25 05:48:10;;;;;;;21.50;19.47;;;25.00;1.00;;;25.81;58.94;100531.03;5005170;28;20445;-75
2022/06/25 05:50:39;;;;;;;19.90;17.60;;;24.90;1.00;;;26.00;58.57;100539.22;5003950;28;20815;-74
2022/06/25 05:53:08;;;;;;;20.30;18.17;;;25.00;1.00;;;26.05;57.06;100531.59;5004613;28;20518;-74
2022/06/25 05:55:37;;;;;;;21.23;19.30;;;25.20;1.00;;;26.11;57.30;100529.50;5005010;28;20437;-74
2022/06/25 05:58:06;;;;;;;31.13;18.47;;;25.30;1.00;;;25.81;58.78;100529.09;5003698;28;20449;-74
2022/06/25 06:00:35;;;;;;;20.60;18.63;;;25.10;1.00;;;25.89;58.23;100533.09;5010929;28;20468;-74
2022/06/25 06:03:06;;;;;;;25.83;23.00;;;25.00;1.00;;;25.72;58.53;100541.22;5010336;28;21038;-74
2022/06/25 06:05:35;;;;;;;21.07;19.00;;;25.20;1.00;;;25.47;58.98;100537.84;5008512;28;20524;-74
2022/06/25 06:08:05;;;;;;;20.83;18.90;;;25.00;1.00;;;25.23;59.82;100531.72;5004024;28;20433;-73
2022/06/25 06:10:34;;;;;;;21.60;19.43;;;24.70;1.00;;;25.36;59.77;100533.69;5006369;28;20536;-75
2022/06/25 06:13:03;;;;;;;22.10;20.00;;;24.60;1.00;;;25.47;59.14;100537.84;5011578;28;20461;-75
2022/06/25 06:15:33;;;;;;;23.80;21.60;;;24.70;1.00;;;25.38;59.74;100538.91;5013407;28;20539;-74
2022/06/25 06:18:02;;;;;;;20.50;18.50;;;24.60;1.00;;;25.61;59.22;100548.16;5013141;28;20433;-74
2022/06/25 06:20:32;;;;;;;21.00;19.10;;;24.60;1.00;;;25.97;57.98;100543.44;5012628;28;20477;-74
2022/06/25 06:23:02;;;;;;;24.30;22.20;;;24.80;1.00;;;26.13;57.21;100550.25;5011510;28;20534;-74
2022/06/25 06:25:31;;;;;;;23.50;20.10;;;25.10;1.00;;;26.19;57.04;100542.66;5008081;28;20444;-75
2022/06/25 06:28:00;;;;;;;22.03;20.03;;;25.30;1.00;;;25.80;57.78;100546.06;5012859;28;20936;-74
2022/06/25 06:30:29;;;;;;;23.63;21.57;;;25.40;1.00;;;25.02;60.09;100547.13;5010144;28;20449;-74
2022/06/25 06:33:04;;;;;;;21.23;19.33;;;25.00;1.00;;;25.31;59.79;100550.41;5027914;28;20449;-74
2022/06/25 06:35:35;;;;;;;22.83;20.53;;;24.90;1.00;;;25.49;59.13;100546.69;5011756;28;20820;-75
2022/06/25 06:38:04;;;;;;;22.30;20.27;;;25.10;1.00;;;25.47;59.20;100542.56;5012272;28;20536;-74
2022/06/25 06:40:33;;;;;;;23.10;20.87;;;25.00;1.00;;;25.76;58.56;100548.63;5011581;28;20858;-74
2022/06/25 06:43:03;;;;;;;22.23;20.30;;;25.20;1.00;;;25.60;59.18;100552.06;5012067;28;20555;-75
2022/06/25 06:45:32;;;;;;;21.90;20.10;;;25.10;1.00;;;25.72;58.54;100557.88;5012832;28;20444;-75
2022/06/25 06:48:01;;;;;;;24.63;21.90;;;25.00;1.00;;;25.75;58.55;100566.41;5006736;28;20512;-75
2022/06/25 06:50:31;;;;;;;23.30;21.07;;;25.00;1.00;;;25.48;58.78;100556.13;5008136;28;20480;-75
2022/06/25 06:53:01;;;;;;;26.33;23.93;;;25.10;1.00;;;25.31;59.48;100563.44;5011099;28;20560;-75
2022/06/25 06:55:31;;;;;;;26.00;23.60;;;25.00;1.00;;;25.30;59.68;100570.09;5012332;28;20522;-75
2022/06/25 06:58:00;;;;;;;22.63;20.60;;;25.00;1.00;;;25.66;59.12;100561.91;5008865;28;20491;-75
2022/06/25 07:00:29;;;;;;;21.97;20.07;;;25.10;1.00;;;25.77;59.52;100571.59;5011818;28;20464;-73
2022/06/25 07:02:58;;;;;;;24.87;22.40;;;25.00;1.00;;;25.90;58.89;100570.78;5011687;28;20465;-74
2022/06/25 07:05:27;;;;;;;27.13;24.40;;;25.30;1.00;;;25.44;60.17;100566.19;5012607;28;20449;-73
2022/06/25 07:07:56;;;;;;;24.07;21.97;;;25.20;1.00;;;25.50;60.50;100576.03;5010118;28;20480;-74
2022/06/25 07:10:27;;;;;;;22.37;20.40;;;25.10;1.00;;;25.42;60.17;100570.38;5009602;28;20446;-75
2022/06/25 07:12:56;;;;;;;26.03;23.73;;;25.10;1.00;;;25.52;60.45;100567.41;5005479;28;20472;-74
2022/06/25 07:15:25;;;;;;;24.50;21.97;;;24.90;1.00;;;25.66;59.98;100575.75;5008987;28;20808;-75
2022/06/25 07:18:00;;;;;;;22.80;20.80;;;25.00;1.00;;;25.71;59.69;100570.91;5011777;28;20447;-74
2022/06/25 07:20:29;;;;;;;23.37;21.27;;;25.10;1.00;;;25.47;59.92;100561.97;5007535;28;20472;-74
2022/06/25 07:22:58;;;;;;;25.30;22.83;;;25.10;1.00;;;25.81;58.87;100569.84;5012656;28;20503;-74
2022/06/25 07:25:29;;;;;;;22.17;20.27;;;25.20;1.00;;;25.87;59.07;100572.22;5010516;28;20445;-75
2022/06/25 07:27:58;;;;;;;25.77;23.00;;;25.30;1.00;;;25.95;59.01;100565.91;5007118;28;20453;-74
2022/06/25 07:30:28;;;;;;;25.77;23.47;;;25.30;1.00;;;26.22;58.72;100578.91;5010667;28;20495;-74
2022/06/25 07:32:57;;;;;;;24.17;21.87;;;25.40;1.00;;;26.22;57.11;100576.16;5008042;28;20556;-74
2022/06/25 07:35:26;;;;;;;24.27;21.77;;;25.50;1.00;;;26.30;57.13;100567.06;5012388;28;20453;-75
2022/06/25 07:37:55;;;;;;;24.50;22.20;;;25.50;1.00;;;26.02;56.75;100564.66;5012032;28;20936;-74
2022/06/25 07:40:31;;;;;;;25.37;22.80;;;25.70;1.00;;;26.02;57.34;100565.50;5011228;28;20567;-74
2022/06/25 07:43:01;;;;;;;23.27;21.07;;;25.60;1.00;;;25.95;57.50;100565.09;4993867;28;20572;-75
2022/06/25 07:45:32;;;;;;;22.77;20.87;;;25.60;1.00;;;26.14;57.27;100557.44;5011957;28;20443;-76
2022/06/25 07:48:08;;;;;;;21.97;19.93;;;25.60;1.00;;;26.22;57.54;100559.50;5011509;28;21019;-75
2022/06/25 07:53:24;;;;;;;22.17;20.27;;;25.80;1.00;;;26.82;55.71;100562.66;5001403;28;20454;-75
2022/06/25 07:55:55;;;;;;;24.63;22.40;;;26.00;1.00;;;27.05;54.84;100566.25;5013309;28;20441;-78
2022/06/25 07:58:24;;;;;;;23.80;21.50;;;26.40;1.00;;;26.69;55.78;100562.75;5006362;28;20779;-75
2022/06/25 08:00:55;;;;;;;23.90;21.83;;;26.30;1.00;;;26.76;55.61;100563.13;4994335;28;20829;-76
2022/06/25 08:03:24;;;;;;;22.43;20.23;;;26.30;1.00;;;27.25;54.17;100571.22;5009507;28;20964;-75
2022/06/25 08:05:54;;;;;;;24.30;21.70;;;26.20;1.00;;;27.39;54.00;100573.06;5012524;28;20441;-75
2022/06/25 08:08:23;;;;;;;23.97;20.63;;;26.40;1.00;;;27.78;53.67;100573.03;4993767;28;20461;-75
2022/06/25 08:10:54;;;;;;;22.70;20.50;;;26.70;1.00;;;28.06;52.28;100577.16;5010877;28;20437;-74
2022/06/25 08:13:24;;;;;;;23.67;21.37;;;27.00;1.00;;;27.95;52.97;100575.00;5011725;28;21037;-74
2022/06/25 08:15:54;;;;;;;24.57;22.17;;;27.00;1.00;;;27.78;53.07;100578.59;5005477;28;20483;-75
2022/06/25 08:18:23;;;;;;;23.40;21.30;;;27.30;1.00;;;27.88;53.02;100580.25;5011456;28;20507;-75
2022/06/25 08:20:52;;;;;;;24.00;22.00;;;27.30;1.00;;;27.98;52.65;100583.50;5010328;28;20483;-76
2022/06/25 08:23:21;;;;;;;23.47;21.27;;;27.50;1.00;;;28.07;51.89;100578.81;5011195;28;20514;-76
2022/06/25 08:25:50;;;;;;;21.60;19.37;;;27.50;1.00;;;28.21;50.89;100575.88;5006461;28;20501;-76
2022/06/25 08:28:22;;;;;;;22.17;20.27;;;27.80;1.00;;;28.63;50.35;100570.59;5011569;28;20441;-74
2022/06/25 08:30:52;;;;;;;21.27;19.20;;;28.10;1.00;;;29.10;50.01;100572.28;5005653;28;20520;-76
2022/06/25 08:33:21;;;;;;;19.87;18.27;;;28.30;1.00;;;29.19;49.52;100573.06;5006977;28;20509;-74
2022/06/25 08:35:50;;;;;;;20.37;18.57;;;28.30;1.00;;;28.97;49.69;100576.09;5010544;28;20449;-74
2022/06/25 08:38:20;;;;;;;21.50;19.60;;;28.30;1.00;;;28.62;50.40;100575.34;4999265;28;20442;-76
2022/06/25 08:40:49;;;;;;;20.03;18.43;;;28.30;1.00;;;28.25;50.81;100585.22;5010089;28;20468;-75
2022/06/25 08:43:19;;;;;;;18.43;16.93;;;27.90;1.00;;;27.87;51.48;100582.22;4994257;28;20487;-75
2022/06/25 08:45:49;;;;;;;19.77;17.83;;;27.70;1.00;;;27.77;51.86;100585.31;5010689;28;20724;-75
2022/06/25 08:48:23;;;;;;;18.57;16.63;;;27.50;1.00;;;27.52;52.20;100586.06;5011164;28;20453;-75
2022/06/25 08:50:54;;;;;;;17.23;15.63;;;27.20;1.00;;;27.84;52.15;100582.84;5009277;28;20459;-74
2022/06/25 08:53:23;;;;;;;18.93;17.27;;;27.30;1.00;;;28.13;50.63;100598.16;5007732;28;20469;-75
2022/06/25 08:55:53;;;;;;;20.33;18.63;;;27.50;1.00;;;27.87;51.38;100598.91;5012952;28;20441;-75
2022/06/25 08:58:23;;;;;;;20.17;18.27;;;27.50;1.00;;;27.99;51.63;100596.28;5011565;28;20436;-75
2022/06/25 09:00:52;;;;;;;18.27;16.67;;;27.40;1.00;;;27.77;51.57;100593.66;5010432;28;20464;-74
2022/06/25 09:03:22;;;;;;;18.47;16.87;;;27.10;1.00;;;28.25;50.75;100592.72;5008902;28;20495;-74
2022/06/25 09:05:51;;;;;;;16.47;14.97;;;27.50;1.00;;;28.10;49.89;100594.00;5010189;28;20440;-75
2022/06/25 09:08:20;;;;;;;18.20;16.60;;;27.60;1.00;;;28.44;50.05;100590.44;5010180;28;20437;-75
2022/06/25 09:10:56;;;;;;;18.37;16.67;;;27.60;1.00;;;28.95;49.09;100598.72;5010284;28;20528;-75
2022/06/25 09:13:26;;;;;;;17.40;15.67;;;28.00;1.00;;;29.53;47.56;100591.59;5008293;28;20614;-74
2022/06/25 09:15:55;;;;;;;16.00;14.53;;;28.40;1.00;;;29.92;46.40;100589.63;5010162;28;20454;-75
2022/06/25 09:18:25;;;;;;;16.83;15.33;;;28.70;1.00;;;30.39;45.27;100588.25;5001949;28;20457;-75
2022/06/25 09:20:59;;;;;;;18.50;16.70;;;29.40;1.00;;;30.78;44.75;100594.47;5007013;28;20475;-74
2022/06/25 09:23:29;;;;;;;17.83;15.93;;;29.80;1.00;;;30.86;44.71;100596.34;4990026;28;20463;-76
2022/06/25 09:26:07;;;;;;;16.63;15.03;;;29.90;1.00;;;30.69;44.53;100585.38;5008906;28;20472;-75
2022/06/25 09:28:40;;;;;;;16.37;14.87;;;29.80;1.00;;;30.47;44.26;100583.75;5009186;28;20439;-75
2022/06/25 09:31:10;;;;;;;14.40;13.30;;;29.90;1.00;;;29.49;45.65;100593.44;5005550;28;20449;-76
2022/06/25 09:33:41;;;;;;;15.97;14.50;;;29.40;1.00;;;29.15;46.09;100586.03;5009816;28;20447;-75
2022/06/25 09:36:11;;;;;;;16.27;14.70;;;29.00;1.00;;;29.39;46.51;100587.44;4987236;28;20470;-75
2022/06/25 09:38:50;;;;;;;16.77;15.27;;;28.90;1.00;;;29.08;46.54;100582.13;5010203;28;20452;-75
2022/06/25 09:41:19;;;;;;;16.63;15.03;;;28.80;1.00;;;29.03;46.24;100590.66;4997740;28;20468;-76
2022/06/25 09:43:51;;;;;;;15.17;13.83;;;28.60;1.00;;;28.73;46.94;100590.59;5010288;28;20548;-76
2022/06/25 09:46:20;;;;;;;15.97;14.47;;;28.30;1.00;;;29.10;46.05;100590.97;4989223;28;20474;-74
2022/06/25 09:48:49;;;;;;;16.37;14.90;;;28.50;1.00;;;29.11;45.97;100593.41;5011600;28;20811;-75
2022/06/25 09:51:23;;;;;;;14.70;13.50;;;28.50;1.00;;;29.22;46.72;100591.91;5016290;28;20804;-75
2022/06/25 09:53:55;;;;;;;16.50;15.00;;;28.50;1.00;;;29.13;46.44;100596.69;5016817;28;20847;-75
2022/06/25 09:56:27;;;;;;;14.27;13.17;;;28.50;1.00;;;29.17;46.09;100599.63;5015260;28;20439;-75
2022/06/25 09:58:59;;;;;;;15.00;13.53;;;28.60;1.00;;;29.15;45.65;100599.13;5016567;28;20531;-75
2022/06/25 10:01:30;;;;;;;14.70;13.53;;;28.60;1.00;;;28.94;46.60;100605.44;5015835;28;20487;-77
2022/06/25 10:04:04;;;;;;;15.37;14.07;;;28.60;1.00;;;28.83;46.71;100598.59;5016366;28;20436;-76
2022/06/25 10:06:39;;;;;;;15.07;13.70;;;28.60;1.00;;;29.01;46.52;100609.66;5010734;28;20451;-75
2022/06/25 10:09:10;;;;;;;16.13;14.77;;;28.60;1.00;;;29.03;46.54;100596.25;5012860;28;20539;-75
2022/06/25 10:11:40;;;;;;;16.10;14.50;;;28.50;1.00;;;28.94;46.87;100599.88;5015995;28;20551;-75
2022/06/25 10:14:10;;;;;;;14.20;13.00;;;28.40;1.00;;;28.62;46.47;100603.19;4998291;28;20453;-74
2022/06/25 10:16:40;;;;;;;14.53;13.00;;;28.50;1.00;;;28.45;47.80;100608.78;5015998;28;20444;-75
2022/06/25 10:19:12;;;;;;;14.90;13.60;;;28.00;1.00;;;28.67;47.57;100604.97;5016728;28;20825;-76
2022/06/25 10:21:42;;;;;;;14.10;12.70;;;28.00;1.00;;;28.69;48.05;100609.06;5016606;28;20504;-76
2022/06/25 10:24:13;;;;;;;13.83;12.53;;;28.00;1.00;;;28.59;47.92;100609.41;5014078;28;20443;-74
2022/06/25 10:26:43;;;;;;;11.67;10.67;;;28.00;1.00;;;28.40;48.13;100611.72;5013414;28;20437;-76
2022/06/25 10:29:31;;;;;;;13.57;12.27;;;28.10;1.00;;;28.21;48.97;100605.66;5016858;28;20811;-75
2022/06/25 10:32:14;;;;;;;13.67;12.53;;;27.90;1.00;;;28.20;48.69;100612.38;5014424;28;20522;-74
2022/06/25 10:34:57;;;;;;;12.17;11.07;;;27.90;1.00;;;28.40;48.98;100608.94;5016558;28;20539;-75
2022/06/25 10:37:26;;;;;;;13.17;11.87;;;27.80;1.00;;;27.88;49.70;100606.09;5004603;28;20450;-75